Pilot Boat 183 — FT7120 — position and weather

sailwx.info

Track history (hours):
 
Tides and Currents Weather Stations Pressure Air Temp Water Temp Dewpoint Dewpoint Depression Visibility Wind Speed Wind Dir Waves Ship Positions

Pilot Boat 183

Last reported at 2014-Dec-12 06:21 UTC. Time now 2014-Dec-22 05:00 UTC.
Position N 43°18' E 005°22'.
Warning: this ship's position is 9 days out of date.

Length 16 m; draft 1 m.

Type: Pilot. MMSI: 227005760.

Date/timePositionNaut miles runAvg speedWind from/ knotsBaromVisibWave heightAir tempDewpointWater temp
2014-Dec-12 06:21N 43°18' E 005°22'0 0.0
2014-Dec-11 14:27N 43°18' E 005°22'0 0.0
2014-Dec-10 14:28N 43°18' E 005°22'0 0.0
2014-Dec-10 12:33N 43°18' E 005°22'0 0.0
2014-Dec-10 11:33N 43°18' E 005°22'0 0.0
2014-Dec-10 10:33N 43°18' E 005°22'0 0.0
2014-Dec-10 09:33N 43°18' E 005°22'0 0.0
2014-Dec-10 08:33N 43°18' E 005°22'0 0.0
2014-Dec-09 14:33N 43°18' E 005°22'0 0.0
2014-Dec-09 13:34N 43°18' E 005°22'0 0.0
2014-Dec-09 12:33N 43°18' E 005°22'0 0.0
2014-Dec-09 10:33N 43°18' E 005°22'0 0.0
2014-Dec-09 09:33N 43°18' E 005°22'0 0.0
2014-Dec-09 08:04N 43°18' E 005°22'2 4.3
2014-Dec-09 07:30N 43°17' E 005°19'2 2.4
2014-Dec-09 06:34N 43°18' E 005°22'3 3.2
2014-Dec-09 05:34N 43°15' E 005°18'1 0.1
2014-Dec-08 18:32N 43°17' E 005°19'2 2.2
2014-Dec-08 17:24N 43°18' E 005°22'0 0.4
2014-Dec-08 16:33N 43°18' E 005°21'2 2.2
2014-Dec-08 15:33N 43°17' E 005°19'2 2.4
2014-Dec-08 14:33N 43°18' E 005°22'3 3.2
2014-Dec-08 13:30N 43°19' E 005°17'2 1.1
2014-Dec-08 11:20N 43°17' E 005°19'2 3.1
2014-Dec-08 10:33N 43°18' E 005°22'3 2.6
2014-Dec-08 09:33N 43°18' E 005°18'1 1.2
2014-Dec-08 08:20N 43°17' E 005°19'2 2.5
2014-Dec-08 07:24N 43°18' E 005°22'1 1.1
2014-Dec-08 06:34N 43°19' E 005°22'3 3.3
2014-Dec-08 05:33N 43°16' E 005°19'2 0.2
2014-Dec-07 18:33N 43°17' E 005°20'1 1.1
2014-Dec-07 17:33N 43°18' E 005°22'0 0.0
2014-Dec-07 16:33N 43°18' E 005°22'3 2.6
2014-Dec-07 15:33N 43°17' E 005°19'2 0.2
2014-Dec-07 07:33N 43°17' E 005°20'1 1.0
2014-Dec-07 06:33N 43°18' E 005°22'2 2.3
2014-Dec-07 05:34N 43°17' E 005°19'1 0.0
2014-Dec-06 10:33N 43°17' E 005°20'4 4.0
2014-Dec-06 09:33N 43°21' E 005°20'3 2.2
2014-Dec-06 08:25N 43°19' E 005°18'2 1.5
2014-Dec-06 07:10N 43°17' E 005°19'2 3.0
2014-Dec-06 06:21N 43°18' E 005°22'0 0.0
2014-Dec-05 20:20N 43°18' E 005°22'  
Track history (hours):
 
Tides and Currents Weather Stations Pressure Air Temp Water Temp Dewpoint Dewpoint Depression Visibility Wind Speed Wind Dir Waves Ship Positions

Pilot Boat 183

Last reported at 2014-Dec-12 06:21 UTC. Time now 2014-Dec-22 05:00 UTC.
Position N 43°18' E 005°22'.
Warning: this ship's position is 9 days out of date.

Length 16 m; draft 1 m.

Type: Pilot. MMSI: 227005760.

Date/timePositionNaut miles runAvg speedWind from/ knotsBaromVisibWave heightAir tempDewpointWater temp
2014-Dec-12 06:21N 43°18' E 005°22'0 0.0
2014-Dec-11 14:27N 43°18' E 005°22'0 0.0
2014-Dec-10 14:28N 43°18' E 005°22'0 0.0
2014-Dec-10 12:33N 43°18' E 005°22'0 0.0
2014-Dec-10 11:33N 43°18' E 005°22'0 0.0
2014-Dec-10 10:33N 43°18' E 005°22'0 0.0
2014-Dec-10 09:33N 43°18' E 005°22'0 0.0
2014-Dec-10 08:33N 43°18' E 005°22'0 0.0
2014-Dec-09 14:33N 43°18' E 005°22'0 0.0
2014-Dec-09 13:34N 43°18' E 005°22'0 0.0
2014-Dec-09 12:33N 43°18' E 005°22'0 0.0
2014-Dec-09 10:33N 43°18' E 005°22'0 0.0
2014-Dec-09 09:33N 43°18' E 005°22'0 0.0
2014-Dec-09 08:04N 43°18' E 005°22'2 4.3
2014-Dec-09 07:30N 43°17' E 005°19'2 2.4
2014-Dec-09 06:34N 43°18' E 005°22'3 3.2
2014-Dec-09 05:34N 43°15' E 005°18'1 0.1
2014-Dec-08 18:32N 43°17' E 005°19'2 2.2
2014-Dec-08 17:24N 43°18' E 005°22'0 0.4
2014-Dec-08 16:33N 43°18' E 005°21'2 2.2
2014-Dec-08 15:33N 43°17' E 005°19'2 2.4
2014-Dec-08 14:33N 43°18' E 005°22'3 3.2
2014-Dec-08 13:30N 43°19' E 005°17'2 1.1
2014-Dec-08 11:20N 43°17' E 005°19'2 3.1
2014-Dec-08 10:33N 43°18' E 005°22'3 2.6
2014-Dec-08 09:33N 43°18' E 005°18'1 1.2
2014-Dec-08 08:20N 43°17' E 005°19'2 2.5
2014-Dec-08 07:24N 43°18' E 005°22'1 1.1
2014-Dec-08 06:34N 43°19' E 005°22'3 3.3
2014-Dec-08 05:33N 43°16' E 005°19'2 0.2
2014-Dec-07 18:33N 43°17' E 005°20'1 1.1
2014-Dec-07 17:33N 43°18' E 005°22'0 0.0
2014-Dec-07 16:33N 43°18' E 005°22'3 2.6
2014-Dec-07 15:33N 43°17' E 005°19'2 0.2
2014-Dec-07 07:33N 43°17' E 005°20'1 1.0
2014-Dec-07 06:33N 43°18' E 005°22'2 2.3
2014-Dec-07 05:34N 43°17' E 005°19'1 0.0
2014-Dec-06 10:33N 43°17' E 005°20'4 4.0
2014-Dec-06 09:33N 43°21' E 005°20'3 2.2
2014-Dec-06 08:25N 43°19' E 005°18'2 1.5
2014-Dec-06 07:10N 43°17' E 005°19'2 3.0
2014-Dec-06 06:21N 43°18' E 005°22'0 0.0
2014-Dec-05 20:20N 43°18' E 005°22'  

Dump ship's entire track history